Etusivu
METAR-TAF:

METAR-TAF

Lentoasemat :

Renton Municipal Airport

Renton, Washington, Yhdysvallat

Leveyspiiri: 47-29-40N, Pituuspiiri: 122-12-46W, korkeus merenpinnasta: 8 m

Tämänhetkinen sää

Tämä raportti tehtiin 1 tunti ja 6 minuuttia sitten, kello 14.53 UTC
tyyntä
Lämpötila 7°C
Kosteus 93%
Ilmanpaine 1020 hPa
Näkyvyys: 8.0 km
selkeää
utua

METAR: KRNT 141453Z 00000KT 5SM BR CLR 07/06 A3012 RMK AO2 SLP203 T00720056 51011

Aika: 08:59 (15:59 UTC)


TAF: puuttuu

Säähavainnot ja -ennusteet yli 4000 lentoasemalta (METAR- ja TAF-raportit).

Käytössä olevat sääasemat on merkitty karttaan keltaisilla ja punaisilla pisteillä.

Aseta hiiri pisteen päälle nähdäksesi sääaseman nimen.

Klikkaa sitten nähdäksesi säähavainnot ja -ennusteet.

Kartan vaihtaminen: klikkaa mustalla rastilla varustettuja vihreitä pisteitä, niin voit zoomata sisään; viivalla varustettua vihreää pistettä, niin voit zoomata ulos tai vihreitä nuolia, niin pääset viereisille kartoille.


METAR-TAF: